FSC weather

Figari Sud-Corse Airport
Figari Sud-Corse, Corsica, France

Public forecast

Using degrees Celsius for public forecast. Weather courtesy of forecast.io.

METAR (pilot weather report)

Retrieved 2019/05/25 05:30 UTC (0 seconds ago):

LFKF 250530Z AUTO 06012KT 9999 NSC 16/13 Q1013 TEMPO 07015G25KT BKN012

TAF (pilot weather forecast)

Retrieved 2019/05/25 03:44 UTC (2 hours ago):

TAF LFKF 250200Z 2503/2603 07012KT CAVOK PROB30 TEMPO 2504/2507 BKN012 TEMPO 2507/2516 07015G25KT BECMG 2521/2524 SCT030 OVC090 TEMPO 2600/2603 SHRA SCT025CB BKN040